Time;durP1;ratioP1;P1;durP2;ratioP2;P2;SDS_P1;SDS_P2;PMS_P1;PMS_P2;Temp;Humidity;BMP_temperature;BMP_pressure;BME280_temperature;BME280_humidity;BME280_pressure;Samples;Min_cycle;Max_cycle;Signal;HPM_P1;HPM_P2
2021/01/01 00:02:11;;;;;;;42.20;28.00;;;;;;;7.74;83.46;94379.56;4966599;28;20462;-95
2021/01/01 00:04:44;;;;;;;46.17;27.90;;;;;;;7.78;82.57;94378.34;4969547;29;20994;-92
2021/01/01 00:07:12;;;;;;;50.83;28.30;;;;;;;7.81;82.11;94382.53;4970799;29;20541;-94
2021/01/01 00:09:39;;;;;;;42.00;25.60;;;;;;;7.66;82.15;94395.88;5188174;23;20492;-93
2021/01/01 00:12:07;;;;;;;49.53;29.80;;;;;;;7.79;82.18;94393.06;5009805;28;20460;-95
2021/01/01 00:17:09;;;;;;;50.90;31.33;;;;;;;7.76;81.97;94406.38;5436414;23;20516;-94
2021/01/01 00:19:36;;;;;;;55.40;29.57;;;;;;;7.82;81.65;94389.41;4976695;28;20459;-96
2021/01/01 00:22:08;;;;;;;46.77;28.20;;;;;;;7.88;81.34;94400.16;5004916;28;20463;-95
2021/01/01 00:24:34;;;;;;;55.10;33.43;;;;;;;7.93;80.70;94392.78;5011725;28;20506;-94
2021/01/01 00:27:01;;;;;;;54.33;35.90;;;;;;;7.97;80.45;94402.03;5013883;28;20551;-93
2021/01/01 00:29:28;;;;;;;48.10;28.55;;;;;;;7.94;80.10;94398.84;5009557;28;20448;-94
2021/01/01 00:31:54;;;;;;;50.80;33.53;;;;;;;7.87;80.52;94408.13;5008146;28;20224;-95
2021/01/01 00:34:24;;;;;;;54.20;32.90;;;;;;;7.97;80.01;94402.03;5345498;23;20560;-95
2021/01/01 00:36:51;;;;;;;57.13;31.03;;;;;;;8.03;78.77;94404.13;5010017;28;21020;-96
2021/01/01 00:39:17;;;;;;;52.63;34.43;;;;;;;7.97;78.56;94404.63;5005060;28;20436;-94
2021/01/01 00:41:43;;;;;;;47.30;28.37;;;;;;;7.99;78.34;94413.16;4999048;28;20448;-95
2021/01/01 00:44:11;;;;;;;47.00;27.53;;;;;;;7.99;77.67;94421.00;5001561;28;20487;-96
2021/01/01 00:46:37;;;;;;;41.77;23.80;;;;;;;7.96;77.76;94413.44;5003605;28;20964;-94
2021/01/01 00:49:03;;;;;;;36.20;24.80;;;;;;;7.91;77.67;94412.97;5005520;28;20444;-96
2021/01/01 00:51:32;;;;;;;51.73;29.70;;;;;;;7.85;77.92;94420.50;5002828;28;20451;-95
2021/01/01 00:54:00;;;;;;;41.93;26.03;;;;;;;7.86;77.91;94422.16;4998813;28;20512;-95
2021/01/01 00:56:27;;;;;;;48.97;26.13;;;;;;;7.83;78.53;94423.22;4998723;28;20479;-96
2021/01/01 00:58:55;;;;;;;47.53;26.57;;;;;;;7.83;78.16;94425.03;5002335;28;20461;-96
2021/01/01 01:01:26;;;;;;;40.73;26.00;;;;;;;7.85;77.57;94428.34;5009730;28;20532;-94
2021/01/01 01:03:54;;;;;;;44.70;26.13;;;;;;;7.82;77.35;94432.03;5008087;28;20465;-96
2021/01/01 01:06:21;;;;;;;49.10;25.03;;;;;;;7.83;77.53;94430.25;4998688;28;20509;-96
2021/01/01 01:08:49;;;;;;;41.47;24.73;;;;;;;7.72;77.21;94436.31;5005359;28;20448;-94
2021/01/01 01:11:18;;;;;;;42.07;24.03;;;;;;;7.71;77.29;94434.66;5014818;28;20456;-93
2021/01/01 01:13:47;;;;;;;47.37;24.93;;;;;;;7.58;77.31;94421.78;5015510;28;20496;-96
2021/01/01 01:16:20;;;;;;;40.30;26.83;;;;;;;7.56;77.74;94430.69;5005273;28;20452;-93
2021/01/01 01:18:48;;;;;;;52.20;25.63;;;;;;;7.56;77.45;94441.97;5012280;28;21082;-95
2021/01/01 01:21:15;;;;;;;40.60;24.83;;;;;;;7.58;77.20;94447.88;5010425;28;20452;-96
2021/01/01 01:23:42;;;;;;;40.43;22.57;;;;;;;7.50;77.16;94452.03;5006355;28;20448;-96
2021/01/01 01:26:26;;;;;;;38.67;22.50;;;;;;;7.43;77.31;94436.88;5012509;28;20999;-94
2021/01/01 01:28:52;;;;;;;34.60;21.90;;;;;;;7.38;77.00;94441.63;5015593;28;20448;-96
2021/01/01 01:31:20;;;;;;;39.70;23.00;;;;;;;7.36;77.00;94445.31;5010985;28;20513;-96
2021/01/01 01:34:07;;;;;;;37.93;23.77;;;;;;;7.34;77.13;94448.06;5010338;28;20460;-96
2021/01/01 01:36:33;;;;;;;34.03;19.33;;;;;;;7.20;77.12;94452.69;5006491;28;20846;-95
2021/01/01 01:39:00;;;;;;;33.67;17.60;;;;;;;7.04;76.68;94435.63;5008035;28;20484;-94
2021/01/01 01:41:28;;;;;;;30.83;16.73;;;;;;;7.04;77.78;94447.84;5001774;28;20448;-96
2021/01/01 01:43:54;;;;;;;31.47;17.23;;;;;;;7.08;77.33;94447.50;5002037;28;20466;-96
2021/01/01 01:46:23;;;;;;;26.10;16.87;;;;;;;7.08;76.40;94450.09;5007173;28;20543;-96
2021/01/01 01:48:50;;;;;;;30.00;16.53;;;;;;;7.08;76.96;94451.88;5003926;28;20448;-95
2021/01/01 01:51:17;;;;;;;32.50;17.80;;;;;;;7.01;76.88;94450.72;5001147;28;20575;-95
2021/01/01 01:53:46;;;;;;;31.57;16.50;;;;;;;7.00;76.59;94452.47;4999957;28;20601;-96
2021/01/01 01:56:12;;;;;;;29.80;16.43;;;;;;;6.96;76.98;94458.06;5003045;28;20455;-94
2021/01/01 01:58:42;;;;;;;30.03;16.07;;;;;;;6.92;76.38;94440.97;5007920;28;20543;-94
2021/01/01 02:01:13;;;;;;;26.70;16.20;;;;;;;6.93;76.39;94446.06;5015498;28;20460;-96
2021/01/01 02:03:40;;;;;;;34.90;16.63;;;;;;;6.96;76.25;94460.66;5012894;28;20485;-96
2021/01/01 02:06:08;;;;;;;25.33;15.57;;;;;;;6.94;76.60;94467.75;5011695;28;20511;-95
2021/01/01 02:08:35;;;;;;;32.30;15.23;;;;;;;6.91;76.10;94454.97;5009288;28;20476;-95
2021/01/01 02:11:03;;;;;;;26.60;14.30;;;;;;;7.00;76.74;94469.91;5007283;28;20870;-96
2021/01/01 02:13:31;;;;;;;24.53;14.60;;;;;;;6.99;76.34;94465.66;5008249;28;20459;-96
2021/01/01 02:18:57;;;;;;;20.70;12.67;;;;;;;7.08;75.65;94464.91;5195513;23;20529;-96
2021/01/01 02:21:24;;;;;;;22.17;13.30;;;;;;;7.11;75.53;94467.28;5014100;28;20590;-94
2021/01/01 02:23:54;;;;;;;26.73;12.40;;;;;;;7.09;74.96;94472.63;5014451;28;20511;-96
2021/01/01 02:26:24;;;;;;;23.00;13.10;;;;;;;7.02;75.72;94457.59;5011739;28;20502;-95
2021/01/01 02:28:51;;;;;;;17.63;12.87;;;;;;;7.07;76.03;94464.09;5010510;28;20494;-95
2021/01/01 02:31:18;;;;;;;20.13;13.10;;;;;;;7.15;75.22;94473.94;5010667;28;20476;-92
2021/01/01 02:33:45;;;;;;;19.23;11.93;;;;;;;7.14;75.24;94472.25;5007585;28;20456;-96
2021/01/01 02:36:13;;;;;;;23.23;12.33;;;;;;;7.18;75.49;94480.69;5011466;28;20514;-96
2021/01/01 02:38:40;;;;;;;29.03;16.10;;;;;;;6.95;75.26;94477.28;5007592;28;20464;-94
2021/01/01 02:41:10;;;;;;;27.63;15.10;;;;;;;6.94;75.67;94475.59;5006352;28;20798;-95
2021/01/01 02:43:37;;;;;;;31.43;17.03;;;;;;;6.97;76.79;94491.03;5006257;28;20449;-96
2021/01/01 02:46:04;;;;;;;34.73;17.07;;;;;;;6.93;76.04;94486.97;5007472;28;20552;-96
2021/01/01 02:48:31;;;;;;;30.83;14.97;;;;;;;6.85;76.64;94482.34;5006034;28;20456;-96
2021/01/01 02:50:58;;;;;;;28.50;17.40;;;;;;;6.80;76.78;94480.09;5005936;28;20444;-94
2021/01/01 02:53:27;;;;;;;38.33;17.27;;;;;;;6.87;76.71;94474.41;5004619;28;20661;-96
2021/01/01 02:55:54;;;;;;;29.13;15.80;;;;;;;6.99;77.50;94483.91;5007281;28;20448;-96
2021/01/01 02:58:23;;;;;;;28.30;15.87;;;;;;;7.01;77.23;94477.63;5011339;28;20460;-96
2021/01/01 03:00:50;;;;;;;24.60;16.53;;;;;;;7.01;76.54;94482.84;5007861;28;20459;-96
2021/01/01 03:03:17;;;;;;;30.50;19.00;;;;;;;7.11;77.26;94494.22;5005140;28;20535;-96
2021/01/01 03:05:43;;;;;;;34.90;21.60;;;;;;;7.11;77.22;94494.22;5002245;28;20483;-96
2021/01/01 03:08:11;;;;;;;32.20;18.50;;;;;;;7.13;76.77;94491.47;5001766;28;20470;-96
2021/01/01 03:10:37;;;;;;;25.43;17.03;;;;;;;7.14;76.96;94493.13;5003869;28;20444;-96
2021/01/01 03:13:05;;;;;;;19.90;14.77;;;;;;;7.17;76.36;94492.06;5002964;28;20456;-96
2021/01/01 03:15:33;;;;;;;35.50;16.77;;;;;;;7.18;76.50;94494.56;5003524;28;20452;-95
2021/01/01 03:17:59;;;;;;;34.20;16.40;;;;;;;7.20;76.12;94491.81;5004226;28;20490;-96
2021/01/01 03:20:26;;;;;;;22.23;14.13;;;;;;;7.20;76.37;94494.44;5002753;28;20527;-96
2021/01/01 03:22:52;;;;;;;20.80;14.20;;;;;;;7.19;75.80;94493.59;5004545;28;20471;-96
2021/01/01 03:25:19;;;;;;;21.60;14.47;;;;;;;7.17;76.06;94498.13;5002317;28;20570;-96
2021/01/01 03:27:48;;;;;;;21.30;12.70;;;;;;;7.19;76.67;94501.44;5002208;28;20456;-96
2021/01/01 03:30:15;;;;;;;26.43;14.30;;;;;;;7.20;76.36;94497.88;5002578;28;20444;-96
2021/01/01 03:32:43;;;;;;;23.23;14.43;;;;;;;7.19;76.17;94501.44;5001738;28;20479;-96
2021/01/01 03:35:10;;;;;;;28.13;13.83;;;;;;;7.15;76.79;94500.84;5004189;28;20495;-96
2021/01/01 03:37:37;;;;;;;22.43;12.83;;;;;;;7.17;76.54;94508.56;5003172;28;20952;-96
2021/01/01 03:40:05;;;;;;;20.27;13.63;;;;;;;7.17;77.06;94503.34;5001031;28;20456;-95
2021/01/01 03:42:33;;;;;;;27.43;14.13;;;;;;;7.15;76.24;94500.00;5008571;28;20514;-94
2021/01/01 03:45:01;;;;;;;22.27;13.47;;;;;;;7.20;75.55;94497.88;4931233;29;20569;-96
2021/01/01 03:47:28;;;;;;;25.10;14.27;;;;;;;7.17;75.45;94486.84;4928484;29;20451;-95
2021/01/01 03:49:56;;;;;;;21.67;12.90;;;;;;;7.13;75.83;94491.47;4925601;29;20452;-95
2021/01/01 03:52:22;;;;;;;23.73;12.67;;;;;;;7.14;75.80;94501.78;4923279;29;20526;-96
2021/01/01 03:54:49;;;;;;;21.53;12.10;;;;;;;7.10;76.53;94495.16;4921323;29;20480;-90
2021/01/01 03:57:15;;;;;;;17.63;11.70;;;;;;;7.04;76.31;94497.41;4918435;29;20965;-96
2021/01/01 03:59:42;;;;;;;24.10;11.47;;;;;;;6.98;76.19;94497.91;4919244;29;20860;-96
2021/01/01 04:02:08;;;;;;;20.57;11.23;;;;;;;6.94;76.39;94489.47;4928037;28;20480;-94
2021/01/01 04:04:35;;;;;;;16.13;11.00;;;;;;;6.95;76.29;94496.34;5003328;28;20502;-96
2021/01/01 04:07:03;;;;;;;24.10;11.60;;;;;;;6.90;76.51;94501.06;5002789;28;20535;-94
2021/01/01 04:09:30;;;;;;;20.50;11.57;;;;;;;6.92;75.99;94508.78;5003679;28;20464;-96
2021/01/01 04:11:56;;;;;;;20.77;12.63;;;;;;;6.86;76.38;94511.84;4999890;28;20483;-96
2021/01/01 04:14:23;;;;;;;18.07;11.17;;;;;;;6.81;76.08;94510.44;4999613;28;20470;-95
2021/01/01 04:16:49;;;;;;;19.13;14.00;;;;;;;6.73;76.32;94523.25;5002841;28;20800;-95
2021/01/01 04:19:16;;;;;;;18.40;12.00;;;;;;;6.60;76.66;94525.09;4999663;28;20483;-95
2021/01/01 04:21:46;;;;;;;13.30;10.13;;;;;;;6.56;77.61;94513.22;5000399;28;20522;-96
2021/01/01 04:24:14;;;;;;;11.83;8.83;;;;;;;6.56;77.32;94528.88;4997882;28;20456;-95
2021/01/01 04:26:41;;;;;;;17.87;11.77;;;;;;;6.56;76.88;94526.28;5000822;28;20448;-95
2021/01/01 04:29:07;;;;;;;20.20;10.20;;;;;;;6.58;76.42;94532.19;5003427;28;21026;-94
2021/01/01 04:31:35;;;;;;;17.27;9.50;;;;;;;6.52;76.61;94530.88;4999110;28;20955;-96
2021/01/01 04:34:02;;;;;;;15.30;10.27;;;;;;;6.45;77.18;94544.50;5000818;28;20463;-96
2021/01/01 04:36:28;;;;;;;15.90;9.80;;;;;;;6.43;77.68;94534.19;4997909;28;20506;-94
2021/01/01 04:38:55;;;;;;;10.43;8.27;;;;;;;6.42;76.98;94531.69;4996910;28;20456;-94
2021/01/01 04:41:23;;;;;;;13.43;9.80;;;;;;;6.37;77.01;94533.81;4996834;28;20962;-96
2021/01/01 04:43:50;;;;;;;15.27;9.80;;;;;;;6.34;77.42;94534.00;4998983;28;20460;-96
2021/01/01 04:46:17;;;;;;;11.00;9.03;;;;;;;6.33;77.41;94527.97;5002187;28;20519;-96
2021/01/01 04:48:44;;;;;;;13.10;9.50;;;;;;;6.34;77.82;94528.81;5001796;28;20447;-95
2021/01/01 04:51:11;;;;;;;14.50;8.83;;;;;;;6.38;77.81;94535.47;5000969;28;21244;-95
2021/01/01 04:53:39;;;;;;;18.57;10.00;;;;;;;6.38;76.80;94531.09;5004034;28;20451;-96
2021/01/01 04:56:07;;;;;;;14.23;8.70;;;;;;;6.36;76.58;94530.38;5006345;28;20531;-95
2021/01/01 04:58:35;;;;;;;13.90;8.50;;;;;;;6.37;76.55;94536.41;5004397;28;20806;-96
2021/01/01 05:01:03;;;;;;;15.07;8.90;;;;;;;6.28;77.27;94550.09;5001124;28;20460;-96
2021/01/01 05:03:29;;;;;;;15.20;9.67;;;;;;;6.28;77.83;94548.34;5002122;28;20538;-95
2021/01/01 05:05:56;;;;;;;14.57;7.73;;;;;;;6.25;77.83;94542.53;5002587;28;21003;-94
2021/01/01 05:08:23;;;;;;;15.53;9.30;;;;;;;6.22;76.97;94548.78;5003421;28;20478;-95
2021/01/01 05:10:51;;;;;;;13.83;8.27;;;;;;;6.21;77.79;94549.72;5002745;28;20475;-96
2021/01/01 05:13:19;;;;;;;9.70;7.90;;;;;;;6.19;77.30;94556.84;5003512;28;20454;-96
2021/01/01 05:15:47;;;;;;;14.70;8.43;;;;;;;6.19;76.68;94562.88;5004200;28;20456;-96
2021/01/01 05:18:21;;;;;;;11.90;9.47;;;;;;;6.17;77.59;94569.13;5005120;28;21062;-96
2021/01/01 05:20:49;;;;;;;12.70;9.10;;;;;;;6.20;77.95;94574.94;5006406;28;20530;-95
2021/01/01 05:23:21;;;;;;;12.70;8.73;;;;;;;6.19;77.54;94578.50;5006593;28;20474;-95
2021/01/01 05:26:09;;;;;;;17.43;10.20;;;;;;;6.13;76.87;94578.97;5002171;28;20541;-94
2021/01/01 05:28:54;;;;;;;18.40;9.93;;;;;;;6.06;77.97;94582.91;5001492;28;20463;-94
2021/01/01 05:31:24;;;;;;;21.00;9.97;;;;;;;6.04;77.10;94583.97;5005764;28;20456;-96
2021/01/01 05:33:58;;;;;;;18.57;10.37;;;;;;;6.06;77.20;94590.72;5006775;28;20447;-95
2021/01/01 05:36:37;;;;;;;12.67;8.03;;;;;;;6.04;77.49;94587.41;5007476;28;20447;-94
2021/01/01 05:39:07;;;;;;;61.13;27.83;;;;;;;6.03;76.69;94597.94;5004319;28;20486;-95
2021/01/01 05:41:36;;;;;;;27.13;13.90;;;;;;;5.98;76.66;94592.25;5008024;28;20459;-96
2021/01/01 05:44:14;;;;;;;20.07;12.67;;;;;;;5.94;77.49;94594.22;5006847;28;20952;-93
2021/01/01 05:47:03;;;;;;;14.93;10.20;;;;;;;5.85;77.15;94597.47;5005869;28;20487;-95
2021/01/01 05:49:33;;;;;;;24.13;12.90;;;;;;;5.79;76.80;94601.34;5010380;28;20480;-96
2021/01/01 05:52:11;;;;;;;18.27;11.77;;;;;;;5.77;77.84;94603.19;5006075;28;20514;-96
2021/01/01 05:54:39;;;;;;;16.70;11.07;;;;;;;5.73;77.31;94606.13;5010533;28;20454;-96
2021/01/01 05:57:09;;;;;;;16.23;11.50;;;;;;;5.66;78.29;94615.31;5010873;28;20467;-93
2021/01/01 05:59:40;;;;;;;26.43;14.20;;;;;;;5.55;77.43;94606.50;5016649;28;20451;-96
2021/01/01 06:02:11;;;;;;;28.73;16.63;;;;;;;5.29;78.88;94610.06;5014656;28;20456;-96
2021/01/01 06:04:39;;;;;;;38.03;18.60;;;;;;;5.26;78.46;94612.88;5014770;28;20476;-96
2021/01/01 06:07:08;;;;;;;21.47;10.17;;;;;;;5.31;79.32;94618.59;5007366;28;20443;-96
2021/01/01 06:09:37;;;;;;;14.67;8.80;;;;;;;5.29;78.81;94615.25;5009062;28;20466;-96
2021/01/01 06:12:08;;;;;;;13.80;9.37;;;;;;;5.38;79.32;94625.03;5010780;28;20460;-96
2021/01/01 06:14:38;;;;;;;11.93;8.73;;;;;;;5.33;78.90;94627.13;5005267;28;20463;-96
2021/01/01 06:17:33;;;;;;;18.20;10.13;;;;;;;5.34;78.16;94633.16;5002272;28;20452;-95
2021/01/01 06:19:59;;;;;;;21.70;10.40;;;;;;;5.35;78.58;94640.03;5009399;28;20519;-94
2021/01/01 06:22:27;;;;;;;15.13;8.07;;;;;;;5.35;78.64;94640.03;5000044;28;20487;-95
2021/01/01 06:24:55;;;;;;;17.50;8.73;;;;;;;5.40;78.51;94635.34;4999447;28;20515;-96
2021/01/01 06:27:23;;;;;;;16.50;10.13;;;;;;;5.41;78.47;94650.84;5000889;28;20452;-96
2021/01/01 06:29:53;;;;;;;12.53;8.80;;;;;;;5.39;77.64;94649.28;5001846;28;20523;-95
2021/01/01 06:32:21;;;;;;;16.40;9.77;;;;;;;5.42;78.03;94652.50;5006937;28;21032;-95
2021/01/01 06:34:51;;;;;;;14.53;9.47;;;;;;;5.43;77.65;94655.94;5004500;28;20452;-96
2021/01/01 06:37:40;;;;;;;20.13;10.30;;;;;;;5.51;77.62;94662.31;5015573;28;20442;-94
2021/01/01 06:40:27;;;;;;;21.20;9.20;;;;;;;5.52;78.14;94647.50;5012869;28;20451;-95
2021/01/01 06:42:55;;;;;;;16.77;9.90;;;;;;;5.64;77.81;94672.69;4945410;29;20450;-96
2021/01/01 06:45:42;;;;;;;13.50;9.10;;;;;;;5.68;78.66;94670.69;4945202;29;20490;-90
2021/01/01 06:48:11;;;;;;;12.43;10.13;;;;;;;5.70;78.18;94667.03;4961048;29;20464;-83
2021/01/01 06:50:40;;;;;;;15.70;10.20;;;;;;;5.80;78.44;94675.06;4957188;29;20446;-86
2021/01/01 06:53:09;;;;;;;17.30;11.00;;;;;;;5.88;79.08;94675.38;4958832;29;20456;-93
2021/01/01 06:55:37;;;;;;;15.07;11.20;;;;;;;5.98;78.48;94679.00;4957393;29;20450;-92
2021/01/01 06:58:05;;;;;;;24.33;12.77;;;;;;;6.09;77.73;94692.13;4957390;29;20505;-90
2021/01/01 07:00:56;;;;;;;33.63;16.03;;;;;;;6.21;77.46;94680.81;4965325;28;20445;-90
2021/01/01 07:03:39;;;;;;;22.73;14.30;;;;;;;6.21;77.54;94686.03;4977438;28;20756;-82
2021/01/01 07:06:38;;;;;;;22.30;13.60;;;;;;;6.35;76.97;94687.66;4978932;28;20515;-96
2021/01/01 07:09:10;;;;;;;16.60;10.80;;;;;;;6.45;77.32;94704.31;4977619;28;21016;-93
2021/01/01 07:11:39;;;;;;;18.17;12.60;;;;;;;6.51;77.48;94700.44;4978927;28;20565;-93
2021/01/01 07:14:08;;;;;;;14.27;11.40;;;;;;;6.53;77.66;94690.72;4980152;28;20499;-93
2021/01/01 07:16:39;;;;;;;17.83;11.50;;;;;;;6.52;77.65;94689.06;4979193;28;20506;-89
2021/01/01 07:19:06;;;;;;;18.70;12.00;;;;;;;7.61;100.00;94693.09;4978606;28;20477;-94
2021/01/01 07:21:33;;;;;;;20.63;12.20;;;;;;;7.43;86.36;94704.91;4979270;28;20452;-95
2021/01/01 07:24:01;;;;;;;18.30;11.63;;;;;;;7.37;79.42;94698.38;4979994;28;20469;-92
2021/01/01 07:26:30;;;;;;;15.10;10.80;;;;;;;7.41;77.80;94705.03;4979763;28;20500;-92
2021/01/01 07:28:59;;;;;;;17.40;11.17;;;;;;;7.43;77.03;94707.53;4978920;28;20458;-93
2021/01/01 07:31:26;;;;;;;26.73;11.67;;;;;;;7.45;76.32;94714.28;4980126;28;20508;-93
2021/01/01 07:33:53;;;;;;;19.90;12.60;;;;;;;7.47;75.99;94703.72;4983326;28;20458;-96
2021/01/01 07:36:19;;;;;;;22.07;11.33;;;;;;;7.51;76.21;94715.59;4994186;28;20480;-92
2021/01/01 07:38:48;;;;;;;19.87;12.20;;;;;;;7.55;75.93;94716.22;4981226;28;20463;-94
2021/01/01 07:41:18;;;;;;;15.33;10.67;;;;;;;7.57;75.43;94719.53;4999076;28;20461;-94
2021/01/01 07:43:44;;;;;;;18.93;11.87;;;;;;;7.60;75.80;94721.91;4998648;28;20514;-94
2021/01/01 07:46:12;;;;;;;19.30;12.60;;;;;;;7.60;74.86;94721.91;4997582;28;20484;-89
2021/01/01 07:48:39;;;;;;;32.37;16.00;;;;;;;7.60;74.93;94721.91;4996594;28;20483;-93
2021/01/01 07:51:07;;;;;;;31.20;18.97;;;;;;;7.58;75.52;94731.66;4997008;28;20452;-89
2021/01/01 07:53:34;;;;;;;39.07;21.43;;;;;;;7.55;75.77;94724.06;4997665;28;20463;-86
2021/01/01 07:56:02;;;;;;;39.07;22.20;;;;;;;7.37;75.82;94732.31;4996930;28;20479;-88
2021/01/01 07:58:31;;;;;;;49.90;22.97;;;;;;;7.37;80.30;94734.91;4995368;28;20448;-88
2021/01/01 08:01:02;;;;;;;45.23;26.27;;;;;;;7.23;79.88;94736.88;4995061;28;20475;-86
2021/01/01 08:03:28;;;;;;;48.70;28.40;;;;;;;7.07;80.01;94738.03;4995460;28;20456;-86
2021/01/01 08:05:55;;;;;;;45.73;27.90;;;;;;;6.94;79.57;94742.50;4976179;28;20531;-87
2021/01/01 08:08:23;;;;;;;39.10;23.93;;;;;;;6.93;79.84;94742.56;4992747;28;20463;-86
2021/01/01 08:10:50;;;;;;;34.63;20.10;;;;;;;6.76;80.57;94755.06;4994974;28;20451;-87
2021/01/01 08:13:18;;;;;;;38.83;20.90;;;;;;;6.72;81.19;94745.81;4994476;28;20460;-84
2021/01/01 08:15:46;;;;;;;35.53;22.13;;;;;;;6.51;83.36;94752.56;4994355;28;20448;-82
2021/01/01 08:18:15;;;;;;;33.03;21.20;;;;;;;6.45;83.36;94755.59;4993510;28;20483;-84
2021/01/01 08:20:42;;;;;;;37.00;22.23;;;;;;;6.24;83.85;94741.47;4993717;28;20571;-83
2021/01/01 08:23:11;;;;;;;35.90;21.77;;;;;;;6.34;84.96;94753.72;4993611;28;20480;-83
2021/01/01 08:25:38;;;;;;;29.80;19.03;;;;;;;6.62;83.76;94762.22;4993787;28;20484;-85
2021/01/01 08:28:06;;;;;;;34.60;19.53;;;;;;;6.62;82.92;94752.59;4993523;28;20456;-85
2021/01/01 08:30:34;;;;;;;35.37;20.00;;;;;;;6.66;83.20;94759.28;4993922;28;20444;-89
2021/01/01 08:33:02;;;;;;;36.60;20.47;;;;;;;6.64;83.44;94762.94;4994296;28;20494;-87
2021/01/01 08:35:30;;;;;;;25.63;15.13;;;;;;;6.68;82.12;94756.56;4993374;28;20519;-84
2021/01/01 08:37:56;;;;;;;23.40;14.23;;;;;;;6.86;81.28;94763.06;4993008;28;20448;-83
2021/01/01 08:40:23;;;;;;;25.03;14.13;;;;;;;6.88;80.78;94757.72;4993433;28;20444;-90
2021/01/01 08:42:53;;;;;;;22.43;14.43;;;;;;;7.00;81.53;94772.50;4993899;28;20821;-85
2021/01/01 08:45:20;;;;;;;28.50;14.43;;;;;;;6.83;80.85;94771.94;4993335;28;21062;-85
2021/01/01 08:47:49;;;;;;;28.50;12.60;;;;;;;6.99;80.23;94769.06;4993502;28;20535;-84
2021/01/01 08:50:24;;;;;;;19.33;13.80;;;;;;;7.20;80.14;94769.25;4976090;28;20977;-85
2021/01/01 08:52:57;;;;;;;17.83;11.60;;;;;;;7.25;78.03;94769.78;4988579;28;21008;-83
2021/01/01 08:55:23;;;;;;;22.63;11.60;;;;;;;7.19;77.46;94769.38;4990024;28;20432;-86
2021/01/01 08:57:50;;;;;;;17.77;11.40;;;;;;;7.41;76.89;94772.06;4960010;28;20949;-84
2021/01/01 09:00:17;;;;;;;18.10;11.10;;;;;;;7.56;76.60;94767.50;4993433;28;20459;-83
2021/01/01 09:02:46;;;;;;;21.67;11.27;;;;;;;7.66;76.74;94766.69;4959237;28;20945;-83
2021/01/01 09:05:12;;;;;;;13.77;9.47;;;;;;;7.64;76.11;94763.34;4995000;28;20480;-88
2021/01/01 09:07:40;;;;;;;20.60;10.70;;;;;;;7.80;75.54;94763.00;4995973;28;20466;-92
2021/01/01 09:10:19;;;;;;;18.10;10.90;;;;;;;7.91;75.20;94768.25;4997941;28;20455;-92
2021/01/01 09:12:45;;;;;;;15.43;10.77;;;;;;;7.89;74.27;94767.56;4996604;28;20462;-93
2021/01/01 09:15:27;;;;;;;16.53;11.27;;;;;;;7.89;74.70;94772.78;4998248;28;20461;-94
2021/01/01 09:18:03;;;;;;;24.73;14.63;;;;;;;7.81;75.63;94782.97;4996205;28;20566;-92
2021/01/01 09:20:30;;;;;;;21.07;12.70;;;;;;;7.81;74.88;94780.38;4995726;28;20459;-90
2021/01/01 09:23:01;;;;;;;21.93;13.80;;;;;;;7.84;75.51;94776.69;4996174;28;20460;-90
2021/01/01 09:25:29;;;;;;;30.80;15.70;;;;;;;7.84;75.23;94780.13;4998127;28;20519;-93
2021/01/01 09:27:57;;;;;;;23.00;15.40;;;;;;;7.86;75.96;94778.25;4998979;28;20484;-90
2021/01/01 09:30:25;;;;;;;26.50;17.00;;;;;;;7.72;76.66;94778.44;4997171;28;20454;-92
2021/01/01 09:32:53;;;;;;;30.53;18.50;;;;;;;7.81;77.04;94775.16;5000330;28;20456;-91
2021/01/01 09:35:20;;;;;;;34.73;18.43;;;;;;;7.72;76.91;94781.03;5000874;28;20452;-95
2021/01/01 09:37:49;;;;;;;29.00;16.83;;;;;;;7.76;76.43;94775.47;5005511;28;20456;-92
2021/01/01 09:40:18;;;;;;;26.00;16.70;;;;;;;7.92;76.25;94772.53;5003041;28;20518;-96
2021/01/01 09:42:45;;;;;;;29.63;16.20;;;;;;;8.17;75.67;94776.72;5006303;28;20467;-93
2021/01/01 09:45:15;;;;;;;24.57;14.83;;;;;;;8.41;74.71;94778.41;5333254;23;20519;-95
2021/01/01 09:47:43;;;;;;;26.67;15.17;;;;;;;8.64;74.02;94775.63;5009738;28;20460;-92
2021/01/01 09:50:10;;;;;;;26.43;14.83;;;;;;;8.86;72.58;94773.94;5004470;28;20464;-93
2021/01/01 09:52:37;;;;;;;19.90;14.13;;;;;;;9.02;71.25;94774.38;5001786;28;20455;-91
2021/01/01 09:55:04;;;;;;;25.40;15.77;;;;;;;9.22;69.75;94775.38;4998614;28;20462;-90
2021/01/01 09:57:31;;;;;;;27.13;15.13;;;;;;;9.25;69.46;94772.50;5000507;28;20955;-92
2021/01/01 09:59:58;;;;;;;22.27;14.40;;;;;;;9.11;70.59;94771.03;4998255;28;20456;-84
2021/01/01 10:02:25;;;;;;;30.60;15.60;;;;;;;9.20;70.24;94762.41;4996293;28;20815;-84
2021/01/01 10:04:52;;;;;;;20.07;12.97;;;;;;;9.31;69.58;94751.91;4996238;28;20514;-82
2021/01/01 10:07:19;;;;;;;26.13;14.60;;;;;;;9.30;68.80;94763.34;4996506;28;20959;-84
2021/01/01 10:09:45;;;;;;;32.07;15.07;;;;;;;9.27;68.25;94762.75;4996543;28;20457;-84
2021/01/01 10:12:13;;;;;;;29.70;16.17;;;;;;;9.21;69.62;94761.44;4996616;28;20444;-84
2021/01/01 10:14:41;;;;;;;27.40;16.07;;;;;;;9.36;69.37;94762.00;4996835;28;20871;-83
2021/01/01 10:17:07;;;;;;;21.40;13.70;;;;;;;9.45;68.17;94763.03;4996675;28;20930;-85
2021/01/01 10:19:34;;;;;;;21.37;13.47;;;;;;;9.52;67.91;94762.38;4997394;28;20451;-87
2021/01/01 10:22:00;;;;;;;21.60;13.13;;;;;;;9.53;67.39;94758.81;4996229;28;20461;-83
2021/01/01 10:24:27;;;;;;;22.40;13.67;;;;;;;9.57;67.40;94748.94;4995402;28;20486;-81
2021/01/01 10:26:53;;;;;;;18.80;11.97;;;;;;;9.69;67.71;94745.28;4994912;28;20493;-84
2021/01/01 10:29:20;;;;;;;23.70;13.10;;;;;;;9.85;66.92;94745.66;4995743;28;20458;-85
2021/01/01 10:31:48;;;;;;;23.77;15.03;;;;;;;9.94;65.74;94746.66;4995408;28;20478;-84
2021/01/01 10:34:15;;;;;;;28.93;15.27;;;;;;;9.83;67.33;94744.97;4996840;28;20436;-84
2021/01/01 10:36:41;;;;;;;23.63;13.47;;;;;;;9.75;67.97;94730.81;4995132;28;20455;-85
2021/01/01 10:39:09;;;;;;;22.60;13.60;;;;;;;9.65;68.37;94733.41;4995560;28;20451;-84
2021/01/01 10:41:36;;;;;;;23.37;13.03;;;;;;;9.34;69.33;94740.34;4994993;28;20450;-85
2021/01/01 10:44:03;;;;;;;24.53;14.83;;;;;;;9.41;69.08;94738.03;4995287;28;20855;-86
2021/01/01 10:46:29;;;;;;;23.20;14.30;;;;;;;9.47;69.20;94732.28;4995959;28;21037;-84
2021/01/01 10:48:58;;;;;;;21.63;14.00;;;;;;;9.44;68.89;94732.56;4995538;28;20454;-83
2021/01/01 10:51:26;;;;;;;25.93;14.03;;;;;;;9.44;69.08;94729.94;4996587;28;20525;-86
2021/01/01 10:53:52;;;;;;;23.70;14.10;;;;;;;9.46;68.66;94721.00;4996874;28;20456;-85
2021/01/01 10:56:22;;;;;;;22.83;13.37;;;;;;;9.40;68.97;94718.88;4996240;28;20438;-81
2021/01/01 10:58:49;;;;;;;23.73;14.30;;;;;;;9.57;67.88;94723.56;4995776;28;20948;-79
2021/01/01 11:01:19;;;;;;;19.83;13.57;;;;;;;9.76;67.39;94716.75;4996985;28;20533;-84
2021/01/01 11:03:46;;;;;;;26.43;14.20;;;;;;;9.74;67.41;94729.16;4998202;28;20462;-82
2021/01/01 11:06:13;;;;;;;20.57;12.87;;;;;;;9.69;66.09;94719.06;4996692;28;20490;-80
2021/01/01 11:08:40;;;;;;;21.40;13.40;;;;;;;9.70;66.72;94707.63;4996198;28;20442;-83
2021/01/01 11:11:08;;;;;;;20.13;12.63;;;;;;;9.83;67.18;94713.53;4996341;28;20451;-82
2021/01/01 11:13:37;;;;;;;27.97;14.80;;;;;;;9.66;67.45;94716.72;4995238;28;20458;-81
2021/01/01 12:22:17;;;;;;;10.57;7.47;;;;;;;10.54;61.95;94709.13;4857799;29;20445;-81
2021/01/01 12:24:49;;;;;;;11.50;7.20;;;;;;;10.57;61.03;94712.44;4858041;29;20494;-82
2021/01/01 12:27:18;;;;;;;11.00;7.53;;;;;;;10.53;61.45;94717.97;4857393;29;20518;-81
2021/01/01 12:29:46;;;;;;;10.83;7.00;;;;;;;10.42;61.18;94715.44;4857834;29;20452;-82
2021/01/01 12:32:13;;;;;;;16.07;8.43;;;;;;;10.30;61.08;94706.00;4857728;29;21121;-82
2021/01/01 12:34:40;;;;;;;11.53;7.70;;;;;;;10.52;60.84;94711.06;4857579;29;20955;-81
2021/01/01 12:37:06;;;;;;;14.50;8.03;;;;;;;10.50;60.14;94714.78;4857686;29;20468;-82
2021/01/01 12:39:33;;;;;;;11.27;7.70;;;;;;;10.60;60.82;94718.25;4870893;29;20469;-82
2021/01/01 12:41:59;;;;;;;11.63;6.67;;;;;;;10.65;59.43;94723.09;4894773;29;20449;-81
2021/01/01 12:44:26;;;;;;;10.73;7.43;;;;;;;10.77;59.47;94724.66;4894394;29;20840;-81
2021/01/01 12:46:53;;;;;;;12.90;7.13;;;;;;;10.79;59.82;94733.22;4894718;29;20484;-81